Time;durP1;ratioP1;P1;durP2;ratioP2;P2;SDS_P1;SDS_P2;PMS_P1;PMS_P2;Temp;Humidity;BMP_temperature;BMP_pressure;BME280_temperature;BME280_humidity;BME280_pressure;Samples;Min_cycle;Max_cycle;Signal;HPM_P1;HPM_P2
2022/03/07 06:00:39;;;;;;;14.63;13.30;;;4.20;93.50;;;;;;1702098;29;20245;-83
2022/03/07 06:01:30;;;;;;;15.18;13.88;;;4.20;93.50;;;;;;1702588;29;20206;-83
2022/03/07 06:02:22;;;;;;;14.93;13.63;;;4.20;93.50;;;;;;1701998;29;20290;-83
2022/03/07 06:03:13;;;;;;;15.23;13.93;;;4.30;93.40;;;;;;1701207;29;20249;-83
2022/03/07 06:04:05;;;;;;;15.30;13.90;;;4.30;93.40;;;;;;1698988;29;20286;-82
2022/03/07 06:04:55;;;;;;;14.98;13.68;;;4.30;93.40;;;;;;1695692;29;20793;-82
2022/03/07 06:05:47;;;;;;;14.70;13.37;;;4.30;93.40;;;;;;1700886;29;20639;-82
2022/03/07 06:06:38;;;;;;;15.57;14.18;;;4.30;93.40;;;;;;1701773;29;20199;-81
2022/03/07 06:07:30;;;;;;;15.37;13.97;;;4.30;93.40;;;;;;1701889;29;20801;-82
2022/03/07 06:08:20;;;;;;;15.68;14.25;;;4.30;93.30;;;;;;1701463;29;20269;-82
2022/03/07 06:09:12;;;;;;;15.40;14.10;;;4.30;93.30;;;;;;1702639;29;20258;-81
2022/03/07 06:10:03;;;;;;;15.00;13.48;;;4.30;93.30;;;;;;1702001;29;20599;-81
2022/03/07 06:10:55;;;;;;;14.90;13.63;;;4.30;93.40;;;;;;1702033;29;20254;-81
2022/03/07 06:11:47;;;;;;;15.38;13.98;;;4.30;93.40;;;;;;1701484;29;20245;-81
2022/03/07 06:12:39;;;;;;;14.13;12.82;;;4.30;93.50;;;;;;1701660;29;20694;-81
2022/03/07 06:13:29;;;;;;;15.30;13.85;;;4.30;93.50;;;;;;1701846;29;20634;-81
2022/03/07 06:14:21;;;;;;;16.10;14.70;;;4.40;93.50;;;;;;1701779;29;20569;-81
2022/03/07 06:15:12;;;;;;;15.30;14.00;;;4.40;93.50;;;;;;1701705;29;20211;-81
2022/03/07 06:16:06;;;;;;;15.23;13.83;;;4.40;93.50;;;;;;1701627;29;20767;-81
2022/03/07 06:16:56;;;;;;;15.32;13.95;;;4.40;93.50;;;;;;1701688;29;20210;-82
2022/03/07 06:17:52;;;;;;;15.20;13.90;;;4.40;93.50;;;;;;1702064;29;20214;-82
2022/03/07 06:18:43;;;;;;;15.77;14.10;;;4.40;93.50;;;;;;1701425;29;20214;-81
2022/03/07 06:19:34;;;;;;;15.30;14.00;;;4.40;93.60;;;;;;1701949;29;20210;-84
2022/03/07 06:20:26;;;;;;;16.80;15.35;;;4.30;93.60;;;;;;1701437;29;20536;-83
2022/03/07 06:21:18;;;;;;;16.08;14.57;;;4.30;93.70;;;;;;1701772;29;20655;-82
2022/03/07 06:22:08;;;;;;;15.80;14.30;;;4.30;93.70;;;;;;1701937;29;20207;-83
2022/03/07 06:23:00;;;;;;;15.60;14.30;;;4.30;93.80;;;;;;1701844;29;20227;-82
2022/03/07 06:23:51;;;;;;;15.77;14.32;;;4.30;93.80;;;;;;1701763;29;20211;-83
2022/03/07 06:24:43;;;;;;;15.50;14.10;;;4.30;93.80;;;;;;1701682;29;20276;-82
2022/03/07 06:25:34;;;;;;;14.90;13.68;;;4.30;93.90;;;;;;1701564;29;20207;-82
2022/03/07 06:26:26;;;;;;;15.40;13.90;;;4.30;93.90;;;;;;1701192;29;20240;-82
2022/03/07 06:27:17;;;;;;;15.35;13.95;;;4.30;93.90;;;;;;1700186;29;20620;-82
2022/03/07 06:28:09;;;;;;;13.97;12.60;;;4.30;93.90;;;;;;1701143;29;20191;-82
2022/03/07 06:29:00;;;;;;;15.25;13.95;;;4.30;93.80;;;;;;1701365;29;20210;-81
2022/03/07 06:29:52;;;;;;;15.15;13.75;;;4.30;93.80;;;;;;1699103;29;20290;-82
2022/03/07 06:30:46;;;;;;;15.98;14.45;;;4.30;93.90;;;;;;1700884;29;20247;-81
2022/03/07 06:31:38;;;;;;;14.38;13.10;;;4.30;93.90;;;;;;1700350;29;20646;-82
2022/03/07 06:32:30;;;;;;;15.55;14.10;;;4.30;94.00;;;;;;1701402;29;20257;-83
2022/03/07 06:33:20;;;;;;;16.40;14.90;;;4.20;94.10;;;;;;1701478;29;20192;-81
2022/03/07 06:34:12;;;;;;;15.97;14.07;;;4.20;94.20;;;;;;1701565;29;20203;-82
2022/03/07 06:35:04;;;;;;;15.23;13.82;;;4.20;94.40;;;;;;1701517;29;20660;-82
2022/03/07 06:35:56;;;;;;;15.73;14.23;;;4.30;94.30;;;;;;1701314;29;20214;-81
2022/03/07 06:36:47;;;;;;;14.77;13.55;;;4.20;94.50;;;;;;1698632;29;20678;-81
2022/03/07 06:37:39;;;;;;;14.80;13.40;;;4.30;95.00;;;;;;1700465;29;20647;-82
2022/03/07 06:38:30;;;;;;;15.13;13.57;;;4.30;95.40;;;;;;1700869;29;20206;-84
2022/03/07 06:39:25;;;;;;;14.10;12.90;;;4.30;95.70;;;;;;1701036;29;20195;-82
2022/03/07 06:40:17;;;;;;;14.85;13.57;;;4.30;95.80;;;;;;1700340;29;20203;-82
2022/03/07 06:41:08;;;;;;;14.00;12.70;;;4.30;95.80;;;;;;1700973;29;20199;-82
2022/03/07 06:41:59;;;;;;;15.25;13.70;;;4.40;95.60;;;;;;1700904;29;20203;-82
2022/03/07 06:42:51;;;;;;;14.10;12.80;;;4.40;95.30;;;;;;1701231;29;20203;-82
2022/03/07 06:43:43;;;;;;;15.10;13.70;;;4.40;95.30;;;;;;1701272;29;20459;-82
2022/03/07 06:44:39;;;;;;;14.80;13.57;;;4.40;95.30;;;;;;1701348;29;20206;-81
2022/03/07 06:45:30;;;;;;;14.63;13.27;;;4.40;95.20;;;;;;1701418;29;20271;-81
2022/03/07 06:46:22;;;;;;;14.95;13.65;;;4.40;95.30;;;;;;1701071;29;20290;-81
2022/03/07 06:47:16;;;;;;;14.68;13.45;;;4.40;95.50;;;;;;1697398;29;20207;-81
2022/03/07 06:48:08;;;;;;;13.60;12.40;;;4.40;95.20;;;;;;1698742;29;20203;-81
2022/03/07 06:48:59;;;;;;;13.90;12.55;;;4.50;94.90;;;;;;1699247;29;20199;-81
2022/03/07 06:49:56;;;;;;;15.43;14.13;;;4.40;94.70;;;;;;1699915;29;20282;-81
2022/03/07 06:50:47;;;;;;;14.57;13.18;;;4.40;94.60;;;;;;1696407;29;20471;-81
2022/03/07 06:51:39;;;;;;;13.80;12.60;;;4.40;94.50;;;;;;1696369;29;20588;-81
2022/03/07 06:52:30;;;;;;;13.32;12.13;;;4.40;94.50;;;;;;1696512;29;20892;-81
2022/03/07 06:53:22;;;;;;;14.10;12.90;;;4.40;94.40;;;;;;1696718;29;20195;-81
2022/03/07 06:54:12;;;;;;;15.43;12.93;;;4.40;94.30;;;;;;1696281;29;20451;-81
2022/03/07 06:55:05;;;;;;;14.63;13.03;;;4.40;94.20;;;;;;1696076;29;20259;-80
2022/03/07 06:55:56;;;;;;;13.73;12.40;;;4.40;94.20;;;;;;1697694;29;20220;-81
2022/03/07 06:56:47;;;;;;;13.07;11.80;;;4.50;94.20;;;;;;1695377;29;20203;-81
2022/03/07 06:57:38;;;;;;;15.05;13.57;;;4.50;94.20;;;;;;1697117;29;20195;-81
2022/03/07 06:58:30;;;;;;;13.95;12.65;;;4.50;94.20;;;;;;1695167;29;20204;-81
2022/03/07 06:59:21;;;;;;;13.45;12.05;;;4.50;94.20;;;;;;1695718;29;20207;-81
2022/03/07 07:00:16;;;;;;;14.40;13.07;;;4.50;94.10;;;;;;1696296;29;20207;-81
2022/03/07 07:01:07;;;;;;;14.52;13.23;;;4.50;94.20;;;;;;1695773;29;20907;-81
2022/03/07 07:01:59;;;;;;;14.10;12.70;;;4.50;94.20;;;;;;1696020;29;20222;-81
2022/03/07 07:02:51;;;;;;;13.82;12.52;;;4.50;94.30;;;;;;1696746;29;20450;-81
2022/03/07 07:03:42;;;;;;;13.90;12.70;;;4.50;94.30;;;;;;1696241;29;20285;-81
2022/03/07 07:04:35;;;;;;;13.95;12.85;;;4.50;94.30;;;;;;1695487;29;20207;-81
2022/03/07 07:05:27;;;;;;;13.80;12.50;;;4.50;94.40;;;;;;1696340;29;20200;-81
2022/03/07 07:06:17;;;;;;;14.27;13.07;;;4.50;94.40;;;;;;1696773;29;20675;-81
2022/03/07 07:07:10;;;;;;;14.83;13.30;;;4.50;94.30;;;;;;1695676;29;20682;-81
2022/03/07 07:08:02;;;;;;;14.13;12.60;;;4.60;94.30;;;;;;1696035;29;20214;-81
2022/03/07 07:08:52;;;;;;;14.32;12.85;;;4.60;94.20;;;;;;1696481;29;20207;-81
2022/03/07 07:09:44;;;;;;;14.90;13.40;;;4.60;94.20;;;;;;1697120;29;20280;-81
2022/03/07 07:10:35;;;;;;;14.25;12.85;;;4.60;94.20;;;;;;1696978;29;20482;-81
2022/03/07 07:11:27;;;;;;;13.90;12.67;;;4.60;94.30;;;;;;1696475;29;20715;-81
2022/03/07 07:12:18;;;;;;;13.25;12.15;;;4.60;94.40;;;;;;1695880;29;20463;-81
2022/03/07 07:13:14;;;;;;;15.73;14.07;;;4.60;94.40;;;;;;1696678;29;20195;-81
2022/03/07 07:14:04;;;;;;;14.68;13.23;;;4.60;94.40;;;;;;1697043;29;20836;-82
2022/03/07 07:14:56;;;;;;;13.87;12.67;;;4.70;94.30;;;;;;1696422;29;20630;-81
2022/03/07 07:15:55;;;;;;;13.45;12.30;;;4.70;94.30;;;;;;1695100;29;20199;-81
2022/03/07 07:16:46;;;;;;;14.07;12.68;;;4.70;94.20;;;;;;1696074;29;20691;-81
2022/03/07 07:17:37;;;;;;;13.70;12.40;;;4.70;94.00;;;;;;1695884;29;20203;-81
2022/03/07 07:18:30;;;;;;;13.47;12.30;;;4.70;93.90;;;;;;1695096;29;20228;-81
2022/03/07 07:19:21;;;;;;;13.90;12.70;;;4.80;93.80;;;;;;1694227;29;21088;-81
2022/03/07 07:20:13;;;;;;;14.43;13.03;;;4.80;93.80;;;;;;1696918;29;20667;-81
2022/03/07 07:21:04;;;;;;;13.57;12.25;;;4.80;93.80;;;;;;1697654;29;20458;-81
2022/03/07 07:21:56;;;;;;;14.13;12.17;;;4.80;93.90;;;;;;1697042;29;20294;-81
2022/03/07 07:22:47;;;;;;;15.15;12.75;;;4.80;93.90;;;;;;1696044;29;20443;-81
2022/03/07 07:23:39;;;;;;;13.73;12.43;;;4.80;93.90;;;;;;1696499;29;20253;-81
2022/03/07 07:24:29;;;;;;;13.82;12.43;;;4.80;93.90;;;;;;1695867;29;20452;-81
2022/03/07 07:25:21;;;;;;;13.07;11.97;;;4.90;93.90;;;;;;1696754;29;20223;-81
2022/03/07 07:26:12;;;;;;;13.48;12.30;;;4.90;93.80;;;;;;1697441;29;20199;-81
2022/03/07 07:27:04;;;;;;;13.00;11.90;;;4.90;93.70;;;;;;1696918;29;20228;-80
2022/03/07 07:27:55;;;;;;;13.68;12.48;;;4.90;93.70;;;;;;1696478;29;20203;-80
2022/03/07 07:28:47;;;;;;;13.50;12.20;;;4.90;93.70;;;;;;1696358;29;20227;-81
2022/03/07 07:29:39;;;;;;;13.50;12.20;;;4.90;93.70;;;;;;1695669;29;20199;-81
2022/03/07 07:30:30;;;;;;;14.57;13.07;;;5.00;93.70;;;;;;1697595;29;20195;-81
2022/03/07 07:31:21;;;;;;;14.52;12.45;;;5.00;93.80;;;;;;1696290;29;20196;-81
2022/03/07 07:32:13;;;;;;;14.23;11.80;;;5.00;93.80;;;;;;1696722;29;20286;-81
2022/03/07 07:33:04;;;;;;;14.43;13.13;;;5.00;93.80;;;;;;1696420;29;20207;-81
2022/03/07 07:33:57;;;;;;;13.10;12.10;;;5.00;93.80;;;;;;1695988;29;20239;-81
2022/03/07 07:34:48;;;;;;;14.88;13.48;;;5.00;93.80;;;;;;1695404;29;20451;-81
2022/03/07 07:35:40;;;;;;;14.30;12.90;;;5.00;93.70;;;;;;1696256;29;20236;-81
2022/03/07 07:36:31;;;;;;;13.80;12.38;;;5.00;93.60;;;;;;1696644;29;20222;-81
2022/03/07 07:37:22;;;;;;;13.43;12.23;;;5.00;93.50;;;;;;1696011;29;20206;-81
2022/03/07 07:38:13;;;;;;;13.82;12.55;;;5.00;93.50;;;;;;1695934;29;20452;-81
2022/03/07 07:39:05;;;;;;;13.70;12.50;;;5.10;93.60;;;;;;1695867;29;20230;-81
2022/03/07 07:39:56;;;;;;;13.15;12.05;;;5.10;93.70;;;;;;1694897;29;20675;-81
2022/03/07 07:40:48;;;;;;;14.63;13.33;;;5.10;93.40;;;;;;1696654;29;20726;-81
2022/03/07 07:41:38;;;;;;;13.23;11.85;;;5.20;93.40;;;;;;1695927;29;20214;-81
2022/03/07 07:42:30;;;;;;;13.63;12.43;;;5.20;93.40;;;;;;1696263;29;20275;-81
2022/03/07 07:43:21;;;;;;;14.30;12.90;;;5.20;93.40;;;;;;1696289;29;20844;-80
2022/03/07 07:44:13;;;;;;;13.00;11.90;;;5.20;93.30;;;;;;1696009;29;20242;-81
2022/03/07 07:45:04;;;;;;;13.13;11.77;;;5.20;93.30;;;;;;1695705;29;20487;-81
2022/03/07 07:45:56;;;;;;;14.40;13.00;;;5.30;93.30;;;;;;1696293;29;20207;-81
2022/03/07 07:46:47;;;;;;;13.60;12.40;;;5.30;93.30;;;;;;1696309;29;20671;-81
2022/03/07 07:47:39;;;;;;;13.20;12.00;;;5.30;93.30;;;;;;1696470;29;20640;-81
2022/03/07 07:48:29;;;;;;;13.43;12.32;;;5.30;93.30;;;;;;1695395;29;20283;-81
2022/03/07 07:49:24;;;;;;;14.07;12.70;;;5.30;93.40;;;;;;1696109;29;20202;-81
2022/03/07 07:50:15;;;;;;;14.38;12.93;;;5.40;93.30;;;;;;1696431;29;20204;-81
2022/03/07 07:51:07;;;;;;;13.60;12.40;;;5.40;93.30;;;;;;1694754;29;20251;-81
2022/03/07 07:51:58;;;;;;;13.38;12.18;;;5.40;93.30;;;;;;1696461;29;20679;-80
2022/03/07 07:52:49;;;;;;;13.80;12.50;;;5.40;93.20;;;;;;1696561;29;20678;-81
2022/03/07 07:53:40;;;;;;;13.50;12.23;;;5.40;93.30;;;;;;1695947;29;20228;-81
2022/03/07 07:54:32;;;;;;;13.70;12.50;;;5.40;93.20;;;;;;1696242;29;20211;-81
2022/03/07 07:55:23;;;;;;;12.70;11.50;;;5.40;93.20;;;;;;1696217;29;20235;-81
2022/03/07 07:56:15;;;;;;;14.10;12.85;;;5.50;93.10;;;;;;1695642;29;20246;-81
2022/03/07 07:57:07;;;;;;;13.05;11.95;;;5.50;93.10;;;;;;1695980;29;20215;-81
2022/03/07 07:57:59;;;;;;;14.43;13.13;;;5.50;93.20;;;;;;1695350;29;20323;-81
2022/03/07 07:58:49;;;;;;;13.57;12.27;;;5.50;93.40;;;;;;1697266;29;20706;-81
2022/03/07 07:59:41;;;;;;;13.93;11.90;;;5.50;93.40;;;;;;1695576;29;20640;-81
2022/03/07 08:00:32;;;;;;;13.13;11.93;;;5.60;93.00;;;;;;1696108;29;20236;-81
2022/03/07 08:01:24;;;;;;;14.20;12.90;;;5.60;92.90;;;;;;1695314;29;20214;-81
2022/03/07 08:02:15;;;;;;;13.35;12.15;;;5.60;92.90;;;;;;1695279;29;20208;-81
2022/03/07 08:03:07;;;;;;;14.00;12.70;;;5.70;92.90;;;;;;1695965;29;20204;-81
2022/03/07 08:03:58;;;;;;;12.90;11.70;;;5.70;92.90;;;;;;1696010;29;20258;-81
2022/03/07 08:04:51;;;;;;;13.60;12.30;;;5.70;93.00;;;;;;1696246;29;20208;-81
2022/03/07 08:05:45;;;;;;;13.10;11.95;;;5.80;93.00;;;;;;1695781;29;20707;-81
2022/03/07 08:06:37;;;;;;;12.68;11.50;;;5.80;92.80;;;;;;1695655;29;20204;-81
2022/03/07 08:07:28;;;;;;;13.15;11.90;;;5.80;92.80;;;;;;1697173;29;20216;-81
2022/03/07 08:08:19;;;;;;;12.83;11.70;;;5.80;92.90;;;;;;1695261;29;21396;-81
2022/03/07 08:09:10;;;;;;;13.65;12.25;;;5.90;92.90;;;;;;1696360;29;20195;-81
2022/03/07 08:10:02;;;;;;;13.93;12.73;;;5.90;92.80;;;;;;1697489;29;20187;-81
2022/03/07 08:10:53;;;;;;;14.55;13.15;;;5.90;92.70;;;;;;1697002;29;20259;-81
2022/03/07 08:11:45;;;;;;;12.77;11.70;;;6.00;92.60;;;;;;1696881;29;20534;-81
2022/03/07 08:12:36;;;;;;;12.40;11.27;;;6.00;92.40;;;;;;1697682;29;20596;-81
2022/03/07 08:13:27;;;;;;;12.80;11.60;;;6.00;92.40;;;;;;1696858;29;20222;-81
2022/03/07 08:14:18;;;;;;;12.85;11.77;;;6.00;92.40;;;;;;1696798;29;20229;-81
2022/03/07 08:15:11;;;;;;;13.37;12.17;;;6.00;92.40;;;;;;1697343;29;20203;-81
2022/03/07 08:16:02;;;;;;;13.75;12.32;;;6.00;92.30;;;;;;1696654;29;20199;-81
2022/03/07 08:16:54;;;;;;;13.85;12.40;;;6.00;92.20;;;;;;1696629;29;20196;-80
2022/03/07 08:17:49;;;;;;;13.65;12.25;;;6.00;92.10;;;;;;1698011;29;20214;-81
2022/03/07 08:18:41;;;;;;;13.77;12.07;;;6.00;92.00;;;;;;1701513;29;20274;-81
2022/03/07 08:19:32;;;;;;;12.32;11.23;;;6.00;91.90;;;;;;1702738;29;20226;-81
2022/03/07 08:20:27;;;;;;;13.03;11.83;;;6.10;91.90;;;;;;1703240;29;20206;-81
2022/03/07 08:21:21;;;;;;;13.30;12.10;;;6.10;92.00;;;;;;1703151;29;20199;-81
2022/03/07 08:22:13;;;;;;;12.40;11.30;;;6.10;91.90;;;;;;1703105;29;20199;-81
2022/03/07 08:23:05;;;;;;;12.32;11.18;;;6.10;91.80;;;;;;1703259;29;20205;-81
2022/03/07 08:23:56;;;;;;;12.60;11.02;;;6.20;91.80;;;;;;1700413;29;20222;-81
2022/03/07 08:24:47;;;;;;;12.73;11.40;;;6.20;91.50;;;;;;1697385;29;20206;-81
2022/03/07 08:25:39;;;;;;;13.23;11.88;;;6.30;91.30;;;;;;1696927;29;20216;-80
2022/03/07 08:26:30;;;;;;;12.07;10.98;;;6.30;91.30;;;;;;1696070;29;20219;-81
2022/03/07 08:27:21;;;;;;;12.77;11.67;;;6.40;91.10;;;;;;1696586;29;20199;-81
2022/03/07 08:28:13;;;;;;;12.90;11.70;;;6.40;90.90;;;;;;1696756;29;20215;-81
2022/03/07 08:29:04;;;;;;;12.13;11.02;;;6.40;90.80;;;;;;1697992;29;20204;-81
2022/03/07 08:29:55;;;;;;;13.23;11.93;;;6.40;90.70;;;;;;1696783;29;20255;-81
2022/03/07 08:30:47;;;;;;;12.80;11.60;;;6.40;90.70;;;;;;1697859;29;20224;-81
2022/03/07 08:31:38;;;;;;;13.63;12.43;;;6.40;90.70;;;;;;1697717;29;20208;-81
2022/03/07 08:32:30;;;;;;;12.47;11.47;;;6.40;90.60;;;;;;1697020;29;20216;-81
2022/03/07 08:33:21;;;;;;;12.70;11.70;;;6.40;90.40;;;;;;1697512;29;20476;-81
2022/03/07 08:34:12;;;;;;;13.32;11.30;;;6.40;90.20;;;;;;1695798;29;20207;-81
2022/03/07 08:35:06;;;;;;;13.40;12.00;;;6.40;90.00;;;;;;1696540;29;20213;-81
2022/03/07 08:35:59;;;;;;;13.30;12.00;;;6.50;90.00;;;;;;1696160;29;20215;-81
2022/03/07 08:36:50;;;;;;;12.23;11.05;;;6.50;90.00;;;;;;1696188;29;20608;-81
2022/03/07 08:37:44;;;;;;;12.97;11.77;;;6.50;90.00;;;;;;1697618;29;20270;-81
2022/03/07 08:38:35;;;;;;;12.10;11.05;;;6.50;90.20;;;;;;1696167;29;20227;-81
2022/03/07 08:39:26;;;;;;;12.83;11.70;;;6.50;90.30;;;;;;1696850;29;20286;-81
2022/03/07 08:40:19;;;;;;;12.40;11.40;;;6.50;90.20;;;;;;1698072;29;20529;-81
2022/03/07 08:41:11;;;;;;;12.07;11.05;;;6.50;90.00;;;;;;1695824;29;20675;-81
2022/03/07 08:42:02;;;;;;;11.93;10.82;;;6.60;89.80;;;;;;1696800;29;20235;-81
2022/03/07 08:42:54;;;;;;;13.50;12.33;;;6.60;89.70;;;;;;1696932;29;20200;-81
2022/03/07 08:43:45;;;;;;;12.45;11.25;;;6.60;89.60;;;;;;1696382;29;20484;-81
2022/03/07 08:44:37;;;;;;;13.65;12.32;;;6.50;89.60;;;;;;1695798;29;20217;-81
2022/03/07 08:45:29;;;;;;;13.05;11.75;;;6.60;89.60;;;;;;1697221;29;20646;-81
2022/03/07 08:46:20;;;;;;;12.70;11.52;;;6.60;89.60;;;;;;1696487;29;20230;-81
2022/03/07 08:47:13;;;;;;;13.52;12.13;;;6.60;89.80;;;;;;1696619;29;20292;-80
2022/03/07 08:48:04;;;;;;;12.63;11.60;;;6.70;89.80;;;;;;1695884;29;20219;-81
2022/03/07 08:48:56;;;;;;;13.18;11.98;;;6.70;89.70;;;;;;1697878;29;20701;-81
2022/03/07 08:49:47;;;;;;;13.15;11.95;;;6.70;89.50;;;;;;1697870;29;20868;-81
2022/03/07 08:50:38;;;;;;;13.40;12.20;;;6.70;89.40;;;;;;1695297;29;20697;-81
2022/03/07 08:51:31;;;;;;;13.05;11.75;;;6.70;89.20;;;;;;1697639;29;20481;-81
2022/03/07 08:52:22;;;;;;;14.32;12.52;;;6.70;89.10;;;;;;1697461;29;20260;-81
2022/03/07 08:53:13;;;;;;;12.80;11.63;;;6.70;88.80;;;;;;1697960;29;20232;-81
2022/03/07 08:54:06;;;;;;;13.70;12.20;;;6.80;88.70;;;;;;1697648;29;21403;-81
2022/03/07 08:54:57;;;;;;;13.13;11.90;;;6.80;88.80;;;;;;1696218;29;20211;-81
2022/03/07 08:55:48;;;;;;;14.52;11.82;;;6.80;88.80;;;;;;1697611;29;20204;-81
2022/03/07 08:56:40;;;;;;;13.30;12.10;;;6.80;88.80;;;;;;1697769;29;20205;-81
2022/03/07 08:57:31;;;;;;;12.93;11.73;;;6.80;88.70;;;;;;1697432;29;20208;-81
2022/03/07 08:58:23;;;;;;;13.23;12.02;;;6.90;88.60;;;;;;1697305;29;20210;-81
2022/03/07 08:59:13;;;;;;;13.48;12.23;;;6.90;88.50;;;;;;1696817;29;20561;-81
2022/03/07 09:00:08;;;;;;;13.50;12.27;;;7.00;88.50;;;;;;1697261;29;20200;-81
2022/03/07 09:00:59;;;;;;;13.07;11.77;;;7.00;88.40;;;;;;1696663;29;20274;-81
2022/03/07 09:01:50;;;;;;;13.57;12.17;;;7.10;88.30;;;;;;1695951;29;20214;-81
2022/03/07 09:02:41;;;;;;;13.35;12.05;;;7.10;88.20;;;;;;1696660;29;20530;-81
2022/03/07 09:03:34;;;;;;;13.20;12.00;;;7.10;88.30;;;;;;1696759;29;20204;-81
2022/03/07 09:04:26;;;;;;;14.13;12.73;;;7.20;88.30;;;;;;1696264;29;20220;-81
2022/03/07 09:05:17;;;;;;;13.00;11.90;;;7.20;88.20;;;;;;1698035;29;20676;-81
2022/03/07 09:06:09;;;;;;;12.63;11.53;;;7.30;88.10;;;;;;1696778;29;20580;-81
2022/03/07 09:07:01;;;;;;;12.23;11.18;;;7.40;88.00;;;;;;1697035;29;20224;-81
2022/03/07 09:07:52;;;;;;;12.35;11.25;;;7.50;88.00;;;;;;1697395;29;20207;-81
2022/03/07 09:08:43;;;;;;;12.27;11.27;;;7.60;87.80;;;;;;1697448;29;20246;-81
2022/03/07 09:09:35;;;;;;;13.07;11.70;;;7.70;87.70;;;;;;1697343;29;20203;-81
2022/03/07 09:10:26;;;;;;;12.23;11.10;;;7.80;87.60;;;;;;1695942;29;20238;-81
2022/03/07 09:11:18;;;;;;;11.73;10.73;;;8.00;87.50;;;;;;1696800;29;20196;-81
2022/03/07 09:12:09;;;;;;;11.88;10.68;;;8.10;87.30;;;;;;1696212;29;20524;-81
2022/03/07 09:13:01;;;;;;;11.93;10.80;;;8.20;86.90;;;;;;1696970;29;20195;-81
2022/03/07 09:13:53;;;;;;;11.75;10.55;;;8.40;86.60;;;;;;1695795;29;20219;-81
2022/03/07 09:14:44;;;;;;;11.02;10.13;;;8.50;86.40;;;;;;1697215;29;20629;-81
2022/03/07 09:15:35;;;;;;;12.40;11.35;;;8.70;86.20;;;;;;1696493;29;20200;-81
2022/03/07 09:16:27;;;;;;;13.30;12.20;;;8.80;85.90;;;;;;1696789;29;20199;-81
2022/03/07 09:17:17;;;;;;;12.15;11.15;;;9.00;85.60;;;;;;1697530;29;20575;-81
2022/03/07 09:18:09;;;;;;;12.73;11.63;;;9.10;85.20;;;;;;1696008;29;20311;-81
2022/03/07 09:19:00;;;;;;;11.90;10.80;;;9.30;85.00;;;;;;1696934;29;20236;-81
2022/03/07 09:19:52;;;;;;;11.83;10.83;;;9.40;84.70;;;;;;1696490;29;20204;-81
2022/03/07 09:20:44;;;;;;;12.10;11.05;;;9.60;84.50;;;;;;1696739;29;20480;-81
2022/03/07 09:21:35;;;;;;;11.60;10.68;;;9.70;84.60;;;;;;1696230;29;20254;-81
2022/03/07 09:22:28;;;;;;;12.17;11.07;;;9.90;84.30;;;;;;1696957;29;20207;-81
2022/03/07 09:23:19;;;;;;;13.25;11.95;;;10.00;83.70;;;;;;1696897;29;20207;-81
2022/03/07 09:24:11;;;;;;;11.50;10.60;;;10.10;83.40;;;;;;1696885;29;20228;-81
2022/03/07 09:25:03;;;;;;;11.95;10.95;;;10.30;83.10;;;;;;1696673;29;20230;-81
2022/03/07 09:25:55;;;;;;;11.98;10.98;;;10.40;83.10;;;;;;1697132;29;20702;-81
2022/03/07 09:26:46;;;;;;;11.85;10.85;;;10.60;82.60;;;;;;1697309;29;20321;-81
2022/03/07 09:27:38;;;;;;;13.43;12.23;;;10.80;82.20;;;;;;1695255;29;20250;-81
2022/03/07 09:28:29;;;;;;;12.77;11.63;;;10.90;81.90;;;;;;1697659;29;20582;-81
2022/03/07 09:29:21;;;;;;;11.70;10.70;;;11.10;81.60;;;;;;1696502;29;20204;-81
2022/03/07 09:30:13;;;;;;;11.98;10.95;;;11.20;81.40;;;;;;1696428;29;20195;-81
2022/03/07 09:31:06;;;;;;;13.05;11.20;;;11.40;81.20;;;;;;1696475;29;20315;-81
2022/03/07 09:31:56;;;;;;;12.10;11.10;;;11.50;81.30;;;;;;1696892;29;20258;-81
2022/03/07 09:32:48;;;;;;;12.20;11.20;;;11.60;80.80;;;;;;1697483;29;20199;-81
2022/03/07 09:33:39;;;;;;;12.80;11.70;;;11.60;80.00;;;;;;1697496;29;20207;-81
2022/03/07 09:34:31;;;;;;;13.97;12.57;;;11.70;79.40;;;;;;1696740;29;20194;-81
2022/03/07 09:35:22;;;;;;;12.27;11.13;;;11.60;79.00;;;;;;1696712;29;20206;-81
2022/03/07 09:36:14;;;;;;;13.57;12.38;;;11.60;79.00;;;;;;1696880;29;20215;-81
2022/03/07 09:37:06;;;;;;;12.75;11.65;;;11.60;78.50;;;;;;1697181;29;20216;-81
2022/03/07 09:37:59;;;;;;;12.02;11.00;;;11.60;78.80;;;;;;1697782;29;20200;-81
2022/03/07 09:38:50;;;;;;;12.43;11.30;;;11.50;78.90;;;;;;1695272;29;20715;-81
2022/03/07 09:39:42;;;;;;;12.57;11.47;;;11.50;78.90;;;;;;1696395;29;20610;-81
2022/03/07 09:40:33;;;;;;;12.50;11.40;;;11.40;78.80;;;;;;1696971;29;20486;-81
2022/03/07 09:41:27;;;;;;;12.68;11.43;;;11.40;78.60;;;;;;1696479;29;20196;-81
2022/03/07 09:42:17;;;;;;;12.98;11.77;;;11.30;78.20;;;;;;1697330;29;20683;-81
2022/03/07 09:43:09;;;;;;;13.10;12.00;;;11.20;78.20;;;;;;1695472;29;20672;-81
2022/03/07 09:44:00;;;;;;;12.93;11.82;;;11.00;78.40;;;;;;1695388;29;20210;-81
2022/03/07 09:44:52;;;;;;;12.57;11.57;;;10.90;78.50;;;;;;1697208;29;20229;-81
2022/03/07 09:45:44;;;;;;;13.65;12.48;;;10.80;78.30;;;;;;1695563;29;20204;-81
2022/03/07 09:46:36;;;;;;;13.23;11.93;;;10.70;78.50;;;;;;1696248;29;20203;-81
2022/03/07 09:47:29;;;;;;;13.00;11.90;;;10.60;78.70;;;;;;1697606;29;20231;-81
2022/03/07 09:48:23;;;;;;;13.55;12.25;;;10.50;79.00;;;;;;1696231;29;20664;-81
2022/03/07 09:49:13;;;;;;;12.45;11.40;;;10.40;79.30;;;;;;1696132;29;20231;-81
2022/03/07 09:50:06;;;;;;;13.40;12.20;;;10.30;79.50;;;;;;1695884;29;20210;-81
2022/03/07 09:50:58;;;;;;;12.63;11.43;;;10.20;79.90;;;;;;1695824;29;20267;-81
2022/03/07 09:51:49;;;;;;;12.93;11.73;;;10.00;80.00;;;;;;1695990;29;20226;-81
2022/03/07 09:52:44;;;;;;;13.23;12.05;;;9.90;80.10;;;;;;1695310;29;20211;-81
2022/03/07 09:53:37;;;;;;;12.85;11.75;;;9.80;80.10;;;;;;1695935;29;20204;-81
2022/03/07 09:54:28;;;;;;;12.52;11.50;;;9.70;80.20;;;;;;1697354;29;20602;-81
2022/03/07 09:55:19;;;;;;;13.33;12.13;;;9.60;80.30;;;;;;1696189;29;20661;-81
2022/03/07 09:56:10;;;;;;;14.77;12.90;;;9.50;80.50;;;;;;1696663;29;20827;-81
2022/03/07 09:57:02;;;;;;;13.43;12.33;;;9.40;80.70;;;;;;1697023;29;20214;-81
2022/03/07 09:57:54;;;;;;;13.32;12.05;;;9.40;80.90;;;;;;1696235;29;20507;-81
2022/03/07 09:58:45;;;;;;;13.98;12.73;;;9.30;81.20;;;;;;1696121;29;20687;-81
2022/03/07 09:59:37;;;;;;;14.60;13.20;;;9.20;81.30;;;;;;1696334;29;20224;-81
2022/03/07 10:00:28;;;;;;;13.50;12.30;;;9.10;81.40;;;;;;1695941;29;20601;-81
2022/03/07 10:01:19;;;;;;;13.13;11.77;;;9.00;81.70;;;;;;1696357;29;20550;-81
2022/03/07 10:02:14;;;;;;;13.65;12.25;;;8.90;81.80;;;;;;1695728;29;20863;-81
2022/03/07 10:03:09;;;;;;;15.05;13.65;;;8.90;82.00;;;;;;1696747;29;20266;-81
2022/03/07 10:04:04;;;;;;;15.25;13.95;;;8.80;82.20;;;;;;1696681;29;20216;-81
2022/03/07 10:05:02;;;;;;;14.15;12.93;;;8.80;82.50;;;;;;1697461;29;20609;-81
2022/03/07 10:05:52;;;;;;;13.90;12.70;;;8.80;82.90;;;;;;1696167;29;20200;-81
2022/03/07 10:06:53;;;;;;;13.57;12.37;;;8.80;83.30;;;;;;1695964;29;20247;-81
2022/03/07 10:07:45;;;;;;;13.05;11.85;;;8.90;83.30;;;;;;1696160;29;20211;-81
2022/03/07 10:08:38;;;;;;;13.60;12.45;;;9.00;83.10;;;;;;1696120;29;20200;-81
2022/03/07 10:09:29;;;;;;;13.27;12.13;;;9.00;82.90;;;;;;1696145;29;20236;-81
2022/03/07 10:10:20;;;;;;;13.47;12.23;;;9.10;83.00;;;;;;1696133;29;20207;-81
2022/03/07 10:11:11;;;;;;;14.35;13.05;;;9.10;84.00;;;;;;1695563;29;20983;-81
2022/03/07 10:12:04;;;;;;;13.10;11.80;;;9.10;83.70;;;;;;1695615;29;20570;-81
2022/03/07 10:12:55;;;;;;;14.50;13.25;;;9.10;83.30;;;;;;1696701;29;20212;-81
2022/03/07 10:13:51;;;;;;;14.07;12.67;;;9.10;83.30;;;;;;1697153;29;20318;-81
2022/03/07 10:14:45;;;;;;;14.30;13.00;;;9.10;83.50;;;;;;1696759;29;20671;-80
2022/03/07 10:15:39;;;;;;;14.52;13.13;;;9.00;83.20;;;;;;1697109;29;20219;-81
2022/03/07 10:16:38;;;;;;;14.70;13.40;;;9.00;82.90;;;;;;1695665;29;20208;-81
2022/03/07 10:17:31;;;;;;;13.82;12.63;;;8.90;82.90;;;;;;1695968;29;20265;-81
2022/03/07 10:18:22;;;;;;;14.02;12.77;;;8.90;83.00;;;;;;1696074;29;20202;-81
2022/03/07 10:19:15;;;;;;;14.32;13.02;;;8.90;83.00;;;;;;1696254;29;20203;-81
2022/03/07 10:20:08;;;;;;;13.00;11.85;;;9.00;83.10;;;;;;1696043;29;20214;-81
2022/03/07 10:21:03;;;;;;;12.88;11.80;;;9.10;83.20;;;;;;1695842;29;20219;-81
2022/03/07 10:21:53;;;;;;;14.02;12.77;;;9.30;83.00;;;;;;1696293;29;20208;-81
2022/03/07 10:22:46;;;;;;;12.47;11.37;;;9.60;83.30;;;;;;1696839;29;20195;-81
2022/03/07 10:23:50;;;;;;;13.35;12.10;;;9.90;83.70;;;;;;1696548;29;20208;-81
2022/03/07 10:24:41;;;;;;;13.38;12.18;;;10.30;83.70;;;;;;1695352;29;20613;-81
2022/03/07 10:25:33;;;;;;;13.37;12.10;;;10.70;82.90;;;;;;1696342;29;20203;-81
2022/03/07 10:26:25;;;;;;;14.20;12.90;;;11.00;81.70;;;;;;1696886;29;20862;-81